Flight Track Log - Related Links

Times and Time Zones

All times are in EDT time to prevent confusion due to time zone crossing. See the SLI2201 flight status page for this flight to view local times or setup timezone preferences in your user account.

Time Position Orientation Groundspeed Altitude Reporting Facility
EDT Latitude Longitude Course Direction KTS MPH feet Rate Location/Type
Thu 11:35:00 PM 26.2472 -100.9944 301° West  Level Estimated
Thu 11:36:00 PM 26.2895 -101.0754 300° West  Level Estimated
Thu 11:37:00 PM 26.3318 -101.1565 300° West  Level Estimated
Thu 11:38:00 PM 26.3740 -101.2376 300° West  Level Estimated
Thu 11:39:00 PM 26.4162 -101.3188 300° West  Level Estimated
Thu 11:40:00 PM 26.4584 -101.4001 300° West  Level Estimated
Thu 11:41:00 PM 26.5005 -101.4815 300° West  Level Estimated
Thu 11:42:00 PM 26.5425 -101.5628 300° West  Level Estimated
Thu 11:43:00 PM 26.5846 -101.6443 300° West  Level Estimated
Thu 11:44:00 PM 26.6265 -101.7258 300° West  Level Estimated
Thu 11:45:00 PM 26.6684 -101.8074 300° West  Level Estimated
Thu 11:46:00 PM 26.7103 -101.8890 300° West  Level Estimated
Thu 11:47:00 PM 26.7522 -101.9707 300° West  Level Estimated
Thu 11:48:00 PM 26.7939 -102.0524 300° West  Level Estimated
Thu 11:49:00 PM 26.8357 -102.1342 300° West  Level Estimated
Thu 11:50:00 PM 26.8774 -102.2161 300° West  Level Estimated
Thu 11:51:00 PM 26.9190 -102.2980 300° West  Level Estimated
Thu 11:52:00 PM 26.9606 -102.3800 300° West  Level Estimated
Thu 11:53:00 PM 27.0021 -102.4621 300° West  Level Estimated
Thu 11:54:00 PM 27.0436 -102.5442 300° West  Level Estimated
Thu 11:55:00 PM 27.0851 -102.6264 300° West  Level Estimated
Thu 11:56:00 PM 27.1265 -102.7086 300° West  Level Estimated
Thu 11:57:00 PM 27.1678 -102.7909 299° West  Level Estimated
Thu 11:58:00 PM 27.2092 -102.8733 299° West  Level Estimated
Thu 11:59:00 PM 27.2504 -102.9557 299° West  Level Estimated
Fri 12:00:00 AM 27.2916 -103.0381 299° West  Level Estimated
Fri 12:01:00 AM 27.3328 -103.1207 299° West  Level Estimated
Fri 12:02:00 AM 27.3739 -103.2033 299° West  Level Estimated
Fri 12:03:00 AM 27.4149 -103.2859 299° West  Level Estimated
Fri 12:04:00 AM 27.4560 -103.3687 299° West  Level Estimated
Fri 12:05:00 AM 27.4969 -103.4514 299° West  Level Estimated
Fri 12:06:00 AM 27.5379 -103.5343 299° West  Level Estimated
Fri 12:07:00 AM 27.5787 -103.6172 299° West  Level Estimated
Fri 12:08:00 AM 27.6196 -103.7002 299° West  Level Estimated
Fri 12:09:00 AM 27.6603 -103.7832 299° West  Level Estimated
Fri 12:10:00 AM 27.7010 -103.8663 299° West  Level Estimated
Fri 12:11:00 AM 27.7417 -103.9495 299° West  Level Estimated
Fri 12:12:00 AM 27.7823 -104.0327 299° West  Level Estimated
Fri 12:13:00 AM 27.8229 -104.1160 299° West  Level Estimated
Fri 12:14:00 AM 27.8634 -104.1993 299° West  Level Estimated
Fri 12:15:00 AM 27.9039 -104.2827 299° West  Level Estimated
Fri 12:16:00 AM 27.9443 -104.3662 299° West  Level Estimated
Fri 12:17:00 AM 27.9847 -104.4497 299° West  Level Estimated
Fri 12:18:00 AM 28.0250 -104.5333 299° West  Level Estimated
Fri 12:19:00 AM 28.0653 -104.6169 299° West  Level Estimated
Fri 12:20:00 AM 28.1055 -104.7007 299° West  Level Estimated
Fri 12:21:00 AM 28.1457 -104.7844 299° West  Level Estimated
Fri 12:22:00 AM 28.1858 -104.8683 299° West  Level Estimated
Fri 12:23:00 AM 28.2258 -104.9522 298° West  Level Estimated
Fri 12:24:00 AM 28.2659 -105.0361 298° West  Level Estimated
Fri 12:25:00 AM 28.3058 -105.1202 298° West  Level Estimated
Fri 12:26:00 AM 28.3457 -105.2043 298° West  Level Estimated
Fri 12:27:00 AM 28.3856 -105.2884 298° West  Level Estimated
Fri 12:28:00 AM 28.4254 -105.3727 298° West  Level Estimated
Fri 12:29:00 AM 28.4652 -105.4569 298° West  Level Estimated
Fri 12:30:00 AM 28.5049 -105.5413 298° West  Level Estimated
Fri 12:31:00 AM 28.5445 -105.6257 298° West  Level Estimated
Fri 12:32:00 AM 28.5841 -105.7102 298° West  Level Estimated
Fri 12:33:00 AM 28.6237 -105.7947 298° West  Level Estimated
Fri 12:34:00 AM 28.6632 -105.8793 298° West  Level Estimated
Fri 12:35:00 AM 28.7026 -105.9640 298° West  Level Estimated
Fri 12:36:00 AM 28.7029 -105.9646 298° West  Level Estimated
Fri 12:37:00 AM 28.7029 -105.9646 152° Southeast  Level Estimated
Fri 12:38:00 AM 28.7029 -105.9646 28° Northeast  Level Estimated
Fri 12:39:00 AM 28.7029 -105.9646 152° Southeast  Level Estimated
Fri 12:40:00 AM 28.7029 -105.9646 28° Northeast  Level Estimated
Fri 12:41:00 AM 28.7029 -105.9646 152° Southeast  Level Estimated
Fri 12:42:00 AM 28.7029 -105.9646 28° Northeast  Level Estimated
Fri 12:43:00 AM 28.7029 -105.9646 152° Southeast  Level Estimated

Login

Don't have an account? Register now (free) for customized features, flight alerts, and more!